KASE/ASE METAR and TAF weather

Enter ICAO airport designator
Station Type Date Time Source
KASE METAR 2019/10/23 13:53 UTC NOAA

KASE 231353Z 21006KT 10SM FEW065 M02/M05 A3017 RMK AO2 SLP182 T10171050


Station Type Date Time Source
KASE Decoded METAR 2019/10/23 13:53 UTC NOAA

ASPEN-PITKIN COUNTY AIRPORT, CO, United States (KASE) 39-14N 106-52W 2354M
Oct 23, 2019 - 09:53 AM EDT / 2019.10.23 1353 UTC
Wind: from the SSW (210 degrees) at 7 MPH (6 KT):0
Visibility: 10 mile(s):0
Sky conditions: mostly clear
Temperature: 28.9 F (-1.7 C)
Windchill: 21 F (-6 C):1
Dew Point: 23.0 F (-5.0 C)
Relative Humidity: 78%
Pressure (altimeter): 30.17 in. Hg (1021 hPa)
ob: KASE 231353Z 21006KT 10SM FEW065 M02/M05 A3017 RMK AO2 SLP182 T10171050
cycle: 14

Station Type Date Time Source
KASE TAF 2019/10/23 12:33 UTC NOAA

TAF KASE 231130Z 2312/2412 19006KT P6SM FEW090 BKN200
FM231700 36003KT P6SM SCT080 BKN250
FM232200 34011G16KT P6SM VCSH SCT040 BKN070
FM240100 31005KT 6SM -SHSN SCT029 OVC035
FM240400 VRB04KT 2SM -SHSN SCT018 OVC024
FM240800 VRB04KT 4SM -SHSN BR SCT017 OVC040

Example: see airport list